Time;durP1;ratioP1;P1;durP2;ratioP2;P2;SDS_P1;SDS_P2;PMS_P1;PMS_P2;Temp;Humidity;BMP_temperature;BMP_pressure;BME280_temperature;BME280_humidity;BME280_pressure;Samples;Min_cycle;Max_cycle;Signal;HPM_P1;HPM_P2
2022/10/31 00:00:59;;;;;;;18.88;12.95;;;15.30;99.90;;;;;;5015964;28;20030;-62
2022/10/31 00:03:45;;;;;;;17.67;12.32;;;15.40;99.90;;;;;;5032812;28;20560;-58
2022/10/31 00:06:32;;;;;;;14.05;11.50;;;15.40;99.90;;;;;;5031752;28;20091;-61
2022/10/31 00:09:18;;;;;;;18.88;12.75;;;15.30;99.90;;;;;;5032012;28;20030;-58
2022/10/31 00:12:04;;;;;;;18.33;14.48;;;15.30;99.90;;;;;;5017281;28;20026;-61
2022/10/31 00:14:50;;;;;;;22.50;14.18;;;15.30;99.90;;;;;;5031473;28;20033;-62
2022/10/31 00:17:36;;;;;;;18.33;11.48;;;15.40;99.90;;;;;;5013194;28;20030;-61
2022/10/31 00:20:22;;;;;;;14.80;11.45;;;15.50;99.90;;;;;;5022930;28;20034;-62
2022/10/31 00:23:10;;;;;;;20.95;13.50;;;15.50;99.90;;;;;;5021826;28;20046;-62
2022/10/31 00:26:04;;;;;;;19.75;12.10;;;15.60;99.90;;;;;;5031824;28;20033;-62
2022/10/31 00:28:50;;;;;;;12.93;11.63;;;15.50;99.90;;;;;;5029961;28;20095;-61
2022/10/31 00:31:36;;;;;;;18.35;11.70;;;15.50;99.90;;;;;;5031964;28;20108;-60
2022/10/31 00:34:22;;;;;;;16.67;11.90;;;15.40;99.90;;;;;;4997585;28;20030;-61
2022/10/31 00:37:08;;;;;;;16.63;11.90;;;15.50;99.90;;;;;;5005970;28;20498;-64
2022/10/31 00:39:54;;;;;;;16.75;11.93;;;15.50;99.90;;;;;;5002549;28;20402;-63
2022/10/31 00:42:41;;;;;;;18.48;11.68;;;15.50;99.90;;;;;;5016826;28;20370;-62
2022/10/31 00:45:27;;;;;;;16.85;11.85;;;15.50;99.90;;;;;;5032599;28;20075;-61
2022/10/31 00:48:13;;;;;;;17.45;11.10;;;15.50;99.90;;;;;;4998146;28;20112;-62
2022/10/31 00:50:59;;;;;;;14.98;11.65;;;15.60;99.90;;;;;;5014527;28;20297;-61
2022/10/31 00:53:45;;;;;;;14.63;10.10;;;15.50;99.90;;;;;;5016987;28;20510;-61
2022/10/31 00:56:31;;;;;;;17.00;10.63;;;15.50;99.90;;;;;;5031960;28;20049;-61
2022/10/31 00:59:17;;;;;;;14.50;10.25;;;15.50;99.90;;;;;;5031521;28;20040;-61
2022/10/31 01:02:03;;;;;;;16.05;10.60;;;15.50;99.90;;;;;;5032480;28;20108;-61
2022/10/31 01:04:49;;;;;;;12.77;9.93;;;15.50;99.90;;;;;;5031717;28;20030;-59
2022/10/31 01:07:39;;;;;;;14.45;9.50;;;15.50;99.90;;;;;;5029813;28;20497;-60
2022/10/31 01:10:28;;;;;;;13.90;9.80;;;15.50;99.90;;;;;;5031213;28;20060;-61
2022/10/31 01:13:14;;;;;;;15.88;10.45;;;15.50;99.90;;;;;;5029006;28;20025;-60
2022/10/31 01:16:02;;;;;;;15.30;10.98;;;15.40;99.90;;;;;;5032233;28;20030;-61
2022/10/31 01:18:48;;;;;;;15.07;10.13;;;15.40;99.90;;;;;;5031335;28;20061;-57
2022/10/31 01:21:33;;;;;;;14.65;10.50;;;15.40;99.90;;;;;;5030912;28;20026;-61
2022/10/31 01:24:19;;;;;;;14.70;10.07;;;15.50;99.90;;;;;;5017009;28;20029;-61
2022/10/31 01:27:05;;;;;;;17.13;9.80;;;15.40;99.90;;;;;;5031283;28;20029;-61
2022/10/31 01:29:51;;;;;;;12.70;9.73;;;15.40;99.90;;;;;;5030748;28;20036;-61
2022/10/31 01:32:40;;;;;;;16.73;10.75;;;15.40;99.90;;;;;;5030140;28;20034;-59
2022/10/31 01:35:26;;;;;;;16.52;11.68;;;15.40;99.90;;;;;;5031800;28;20041;-61
2022/10/31 01:38:14;;;;;;;15.85;10.35;;;15.30;99.90;;;;;;5016606;28;20033;-60
2022/10/31 01:41:03;;;;;;;16.05;11.23;;;15.30;99.90;;;;;;5030215;28;20113;-60
2022/10/31 01:43:53;;;;;;;22.17;13.90;;;15.20;99.90;;;;;;5016932;28;20640;-59
2022/10/31 01:46:58;;;;;;;29.30;18.15;;;15.20;99.90;;;;;;5015920;28;20041;-58
2022/10/31 01:49:54;;;;;;;48.53;30.15;;;15.20;99.90;;;;;;5031678;28;20076;-58
2022/10/31 01:52:47;;;;;;;30.77;21.70;;;15.20;99.90;;;;;;5011895;28;20041;-60
2022/10/31 01:55:37;;;;;;;21.27;15.02;;;15.10;99.90;;;;;;5018035;28;20030;-59
2022/10/31 01:58:27;;;;;;;15.35;11.10;;;15.10;99.90;;;;;;5016588;28;20029;-60
2022/10/31 02:01:16;;;;;;;19.95;11.48;;;15.10;99.90;;;;;;5030753;28;20030;-58
2022/10/31 02:04:02;;;;;;;15.55;10.50;;;15.00;99.90;;;;;;5029880;28;20026;-59
2022/10/31 02:07:00;;;;;;;15.55;10.27;;;15.00;99.90;;;;;;5030076;28;20053;-55
2022/10/31 02:09:48;;;;;;;14.52;11.63;;;14.90;99.90;;;;;;5031270;28;20022;-58
2022/10/31 02:12:38;;;;;;;15.63;9.93;;;14.90;99.90;;;;;;5011795;28;20033;-61
2022/10/31 02:15:24;;;;;;;15.27;10.63;;;14.90;99.90;;;;;;5023404;28;20022;-61
2022/10/31 02:18:10;;;;;;;16.75;10.38;;;14.80;99.90;;;;;;5030247;28;20060;-59
2022/10/31 02:20:58;;;;;;;22.75;14.00;;;14.80;99.90;;;;;;5030635;28;20068;-57
2022/10/31 02:24:11;;;;;;;19.38;10.90;;;14.80;99.90;;;;;;5030921;28;20021;-59
2022/10/31 02:27:09;;;;;;;11.57;9.82;;;14.80;99.90;;;;;;5010378;28;20037;-61
2022/10/31 02:30:09;;;;;;;15.63;10.32;;;14.80;99.90;;;;;;5017817;28;20029;-60
2022/10/31 02:33:23;;;;;;;18.08;13.52;;;14.70;99.90;;;;;;5031249;28;20032;-60
2022/10/31 02:36:28;;;;;;;20.77;13.43;;;14.70;99.90;;;;;;5031508;28;20013;-58
2022/10/31 02:39:30;;;;;;;15.93;11.05;;;14.70;99.90;;;;;;5036850;28;20037;-60
2022/10/31 02:42:32;;;;;;;14.50;11.15;;;14.60;99.90;;;;;;5030247;28;20029;-61
2022/10/31 02:45:37;;;;;;;18.42;12.13;;;14.60;99.90;;;;;;5030224;28;20105;-61
2022/10/31 02:48:28;;;;;;;21.15;12.32;;;14.60;99.90;;;;;;5030187;28;20625;-60
2022/10/31 02:51:15;;;;;;;16.13;11.15;;;14.60;99.90;;;;;;5029144;28;20033;-61
2022/10/31 02:54:03;;;;;;;16.20;10.57;;;14.60;99.90;;;;;;5029077;28;20571;-60
2022/10/31 02:56:52;;;;;;;20.02;11.77;;;14.60;99.90;;;;;;5030167;28;20413;-57
2022/10/31 02:59:44;;;;;;;14.65;10.43;;;14.60;99.90;;;;;;5030118;28;20595;-60
2022/10/31 03:02:57;;;;;;;13.60;9.65;;;14.60;99.90;;;;;;5028517;28;20030;-60
2022/10/31 03:06:09;;;;;;;15.50;10.45;;;14.60;99.90;;;;;;5028691;28;20561;-58
2022/10/31 03:08:58;;;;;;;13.15;9.85;;;14.70;99.90;;;;;;5029741;28;20029;-59
2022/10/31 03:11:59;;;;;;;15.45;9.30;;;14.60;99.90;;;;;;5028949;28;20391;-61
2022/10/31 03:14:53;;;;;;;12.20;9.77;;;14.60;99.90;;;;;;5013855;28;20036;-62
2022/10/31 03:17:55;;;;;;;13.93;10.38;;;14.60;99.90;;;;;;5028575;28;20037;-58
2022/10/31 03:20:50;;;;;;;13.07;10.00;;;14.60;99.90;;;;;;5030077;28;20057;-61
2022/10/31 03:23:39;;;;;;;15.13;10.00;;;14.60;99.90;;;;;;5029565;28;20075;-62
2022/10/31 03:26:25;;;;;;;12.48;10.15;;;14.50;99.90;;;;;;5029065;28;20030;-60
2022/10/31 03:29:15;;;;;;;14.65;10.13;;;14.50;99.90;;;;;;5028899;28;20037;-62
2022/10/31 03:32:04;;;;;;;15.95;9.85;;;14.50;99.90;;;;;;5034241;28;20075;-61
2022/10/31 03:34:55;;;;;;;14.70;9.73;;;14.40;99.90;;;;;;5018612;28;20111;-60
2022/10/31 03:37:42;;;;;;;17.27;10.00;;;14.40;99.90;;;;;;5032332;28;20033;-59
2022/10/31 03:40:31;;;;;;;12.95;10.00;;;14.40;99.90;;;;;;5013497;28;20045;-62
2022/10/31 03:43:24;;;;;;;19.17;10.50;;;14.40;99.90;;;;;;5029199;28;20030;-61
2022/10/31 03:46:10;;;;;;;13.13;9.73;;;14.50;99.90;;;;;;5033702;28;20110;-60
2022/10/31 03:48:57;;;;;;;16.85;9.73;;;14.50;99.90;;;;;;5018512;28;20112;-60
2022/10/31 03:52:15;;;;;;;14.23;10.52;;;14.40;99.90;;;;;;5032992;28;20163;-61
2022/10/31 03:55:14;;;;;;;11.55;9.00;;;14.40;99.90;;;;;;5005456;28;20038;-60
2022/10/31 03:58:07;;;;;;;13.00;9.30;;;14.40;99.90;;;;;;5023026;28;20042;-61
2022/10/31 04:00:55;;;;;;;12.15;9.48;;;14.40;99.90;;;;;;5032779;28;20104;-61
2022/10/31 04:03:43;;;;;;;15.50;8.98;;;14.40;99.90;;;;;;5032409;28;20029;-60
2022/10/31 04:06:31;;;;;;;13.05;8.82;;;14.30;99.90;;;;;;5032289;28;20036;-60
2022/10/31 04:09:19;;;;;;;12.60;9.43;;;14.30;99.90;;;;;;5032121;28;20034;-60
2022/10/31 04:12:08;;;;;;;10.77;8.85;;;14.30;99.90;;;;;;5031642;28;20533;-60
2022/10/31 04:14:55;;;;;;;11.85;9.10;;;14.30;99.90;;;;;;5032481;28;20075;-60
2022/10/31 04:17:44;;;;;;;15.38;10.05;;;14.30;99.90;;;;;;5031738;28;20037;-60
2022/10/31 04:20:40;;;;;;;11.25;9.43;;;14.30;99.90;;;;;;5032103;28;20033;-60
2022/10/31 04:23:27;;;;;;;15.38;9.88;;;14.30;99.90;;;;;;4998503;28;20030;-60
2022/10/31 04:26:13;;;;;;;14.95;10.02;;;14.30;99.90;;;;;;5015180;28;20021;-61
2022/10/31 04:28:59;;;;;;;12.70;9.25;;;14.20;99.90;;;;;;5032583;28;20032;-61
2022/10/31 04:31:45;;;;;;;10.82;8.88;;;14.20;99.90;;;;;;5031834;28;20076;-61
2022/10/31 04:34:30;;;;;;;10.20;9.10;;;14.20;99.90;;;;;;5031639;28;20649;-61
2022/10/31 04:37:16;;;;;;;18.20;10.95;;;14.10;99.90;;;;;;5031565;28;20516;-60
2022/10/31 04:40:04;;;;;;;13.75;9.68;;;14.10;99.90;;;;;;5032551;28;20103;-60
2022/10/31 04:42:49;;;;;;;12.18;8.70;;;14.00;99.90;;;;;;5031413;28;20061;-62
2022/10/31 04:45:36;;;;;;;10.45;9.27;;;14.00;99.90;;;;;;5031852;28;20025;-61
2022/10/31 04:48:22;;;;;;;13.68;9.30;;;14.00;99.90;;;;;;5032033;28;20035;-59
2022/10/31 04:51:08;;;;;;;12.65;8.63;;;13.90;99.90;;;;;;5032050;28;20030;-60
2022/10/31 04:53:54;;;;;;;14.55;9.38;;;13.90;99.90;;;;;;5031615;28;20060;-62
2022/10/31 04:56:40;;;;;;;12.45;9.82;;;14.00;99.90;;;;;;5031510;28;20041;-61
2022/10/31 04:59:26;;;;;;;13.48;9.48;;;13.90;99.90;;;;;;5017254;28;20152;-61
2022/10/31 05:02:12;;;;;;;14.23;9.80;;;14.00;99.90;;;;;;5031426;28;20071;-62
2022/10/31 05:04:58;;;;;;;10.57;9.18;;;13.90;99.90;;;;;;5030924;28;20056;-62
2022/10/31 05:07:45;;;;;;;10.57;9.18;;;13.90;99.90;;;;;;5031265;28;20025;-60
2022/10/31 05:10:31;;;;;;;14.80;9.50;;;13.90;99.90;;;;;;5030711;28;20037;-61
2022/10/31 05:13:18;;;;;;;12.75;8.95;;;13.90;99.90;;;;;;5016467;28;20026;-60
2022/10/31 05:16:04;;;;;;;13.18;9.60;;;13.90;99.90;;;;;;5030667;28;20057;-60
2022/10/31 05:18:50;;;;;;;13.82;8.95;;;13.80;99.90;;;;;;5030290;28;20029;-60
2022/10/31 05:21:35;;;;;;;14.80;10.48;;;13.80;99.90;;;;;;5030902;28;20514;-60
2022/10/31 05:24:21;;;;;;;12.68;9.85;;;13.80;99.90;;;;;;5032331;28;20533;-61
2022/10/31 05:27:07;;;;;;;12.55;8.85;;;13.70;99.90;;;;;;4989061;28;20420;-61
2022/10/31 05:29:53;;;;;;;15.10;9.32;;;13.70;99.90;;;;;;5030990;28;20021;-61
2022/10/31 05:32:40;;;;;;;13.23;9.50;;;13.70;99.90;;;;;;5016256;28;20091;-62
2022/10/31 05:35:29;;;;;;;13.73;8.95;;;13.60;99.90;;;;;;5030756;28;20022;-62
2022/10/31 05:38:15;;;;;;;9.85;8.32;;;13.60;99.90;;;;;;5030286;28;20405;-60
2022/10/31 05:41:01;;;;;;;15.32;9.57;;;13.50;99.90;;;;;;5018334;28;20034;-60
2022/10/31 05:43:47;;;;;;;12.07;8.70;;;13.50;99.90;;;;;;5030055;28;20025;-61
2022/10/31 05:46:33;;;;;;;10.00;7.53;;;13.50;99.90;;;;;;5002366;28;20022;-58
2022/10/31 05:49:24;;;;;;;14.98;8.50;;;13.50;99.90;;;;;;5016493;28;20025;-60
2022/10/31 05:52:14;;;;;;;10.60;8.65;;;13.40;99.90;;;;;;5014914;28;20040;-60
2022/10/31 05:55:00;;;;;;;11.45;8.05;;;13.50;99.90;;;;;;4997227;28;20556;-60
2022/10/31 05:57:45;;;;;;;10.85;8.38;;;13.40;99.90;;;;;;4996770;28;20034;-60
2022/10/31 06:00:34;;;;;;;9.18;8.27;;;13.40;99.90;;;;;;4999859;28;20076;-61
2022/10/31 06:03:20;;;;;;;11.68;8.23;;;13.40;99.90;;;;;;5016135;28;20022;-59
2022/10/31 06:06:06;;;;;;;13.40;8.63;;;13.40;99.90;;;;;;5030168;28;20057;-60
2022/10/31 06:08:51;;;;;;;9.43;8.23;;;13.40;99.90;;;;;;5030005;28;20383;-60
2022/10/31 06:11:37;;;;;;;11.30;7.95;;;13.30;99.90;;;;;;5010489;28;20026;-60
2022/10/31 06:14:23;;;;;;;9.07;7.45;;;13.20;99.90;;;;;;5015025;28;20030;-60
2022/10/31 06:17:09;;;;;;;11.43;8.80;;;13.20;99.90;;;;;;5029657;28;20065;-62
2022/10/31 06:19:55;;;;;;;11.45;7.80;;;13.20;99.90;;;;;;5030492;28;20034;-62
2022/10/31 06:22:41;;;;;;;9.77;7.15;;;13.30;99.90;;;;;;5029656;28;20030;-61
2022/10/31 06:25:28;;;;;;;8.73;7.10;;;13.20;99.90;;;;;;5029738;28;20445;-61
2022/10/31 06:28:14;;;;;;;10.02;7.43;;;13.20;99.90;;;;;;5029910;28;20029;-61
2022/10/31 06:30:59;;;;;;;8.77;6.93;;;13.10;99.90;;;;;;5029909;28;20056;-62
2022/10/31 06:33:46;;;;;;;11.10;7.68;;;13.10;99.90;;;;;;5029679;28;20030;-60
2022/10/31 06:36:31;;;;;;;11.27;7.50;;;13.00;99.90;;;;;;5019881;28;20037;-62
2022/10/31 06:39:17;;;;;;;10.88;7.93;;;12.90;99.90;;;;;;5018581;28;20109;-60
2022/10/31 06:42:04;;;;;;;10.02;6.95;;;12.80;99.90;;;;;;5032880;28;20022;-61
2022/10/31 06:44:50;;;;;;;8.52;6.60;;;12.80;99.90;;;;;;5031963;28;20033;-63
2022/10/31 06:47:36;;;;;;;10.32;6.50;;;12.80;99.90;;;;;;5016145;28;20528;-63
2022/10/31 06:50:22;;;;;;;10.02;7.07;;;12.80;99.90;;;;;;5029811;28;20401;-62
2022/10/31 06:53:10;;;;;;;9.23;7.78;;;12.80;99.90;;;;;;5029329;28;20034;-65
2022/10/31 06:55:57;;;;;;;9.82;6.90;;;12.80;99.90;;;;;;5010860;28;20033;-62
2022/10/31 06:58:42;;;;;;;10.45;7.47;;;12.80;99.90;;;;;;5013356;28;20030;-61
2022/10/31 07:01:28;;;;;;;9.25;7.35;;;12.80;99.90;;;;;;4996711;28;20034;-62
2022/10/31 07:04:14;;;;;;;19.10;13.00;;;12.90;99.90;;;;;;5015668;28;20087;-63
2022/10/31 07:07:00;;;;;;;12.82;10.18;;;12.90;99.90;;;;;;5019853;28;20195;-64
2022/10/31 07:09:46;;;;;;;14.65;10.45;;;12.90;99.90;;;;;;5034587;28;20040;-61
2022/10/31 07:12:32;;;;;;;13.77;11.32;;;12.90;99.90;;;;;;5035028;28;20032;-61
2022/10/31 07:15:18;;;;;;;10.80;9.05;;;13.00;99.90;;;;;;5018235;28;20044;-61
2022/10/31 07:18:06;;;;;;;13.05;7.60;;;13.10;99.90;;;;;;5018870;28;20102;-59
2022/10/31 07:20:52;;;;;;;11.18;9.50;;;13.20;99.90;;;;;;5033457;28;20077;-61
2022/10/31 07:23:38;;;;;;;10.27;8.63;;;13.10;99.90;;;;;;5033843;28;20036;-62
2022/10/31 07:26:24;;;;;;;13.05;8.00;;;13.20;99.90;;;;;;4999660;28;20030;-60
2022/10/31 07:29:10;;;;;;;11.60;7.90;;;13.20;99.90;;;;;;5016421;28;20033;-64
2022/10/31 07:31:56;;;;;;;10.73;7.57;;;13.20;99.90;;;;;;5032886;28;20526;-63
2022/10/31 07:34:42;;;;;;;11.07;7.50;;;13.30;99.90;;;;;;5033223;28;20041;-62
2022/10/31 07:37:28;;;;;;;12.15;7.95;;;13.30;99.90;;;;;;5033693;28;20060;-61
2022/10/31 07:40:14;;;;;;;9.18;7.40;;;13.30;99.90;;;;;;5032607;28;20056;-64
2022/10/31 07:43:00;;;;;;;11.18;8.57;;;13.40;99.90;;;;;;5013839;28;20709;-64
2022/10/31 07:45:51;;;;;;;17.67;11.00;;;13.50;99.90;;;;;;5027938;28;20068;-63
2022/10/31 07:48:37;;;;;;;11.88;10.38;;;13.50;99.90;;;;;;5033492;28;20509;-60
2022/10/31 07:51:23;;;;;;;16.35;9.35;;;13.60;99.90;;;;;;5033016;28;20045;-63
2022/10/31 07:54:09;;;;;;;14.90;11.00;;;13.70;99.90;;;;;;5032452;28;20080;-60
2022/10/31 07:56:55;;;;;;;12.73;9.18;;;13.80;99.90;;;;;;4985998;28;20038;-61
2022/10/31 07:59:41;;;;;;;16.35;10.50;;;13.90;99.90;;;;;;5003130;28;20045;-60
2022/10/31 08:02:27;;;;;;;14.73;10.50;;;13.90;99.90;;;;;;5032590;28;20674;-60
2022/10/31 08:05:13;;;;;;;12.10;9.80;;;14.00;99.90;;;;;;5031788;28;20562;-62
2022/10/31 08:07:59;;;;;;;18.20;11.57;;;14.20;99.90;;;;;;5032244;28;20414;-60
2022/10/31 08:10:45;;;;;;;14.70;10.63;;;14.30;99.90;;;;;;5032839;28;20478;-61
2022/10/31 08:13:31;;;;;;;15.18;10.13;;;14.30;99.90;;;;;;5006422;28;20132;-61
2022/10/31 08:16:17;;;;;;;16.50;10.50;;;14.40;99.90;;;;;;5031991;28;20065;-61
2022/10/31 08:19:03;;;;;;;17.85;11.50;;;14.50;99.90;;;;;;5018540;28;20021;-62
2022/10/31 08:21:54;;;;;;;15.05;10.88;;;14.60;99.90;;;;;;5032176;28;20438;-63
2022/10/31 08:24:40;;;;;;;15.20;11.38;;;14.60;99.90;;;;;;5031119;28;20033;-60
2022/10/31 08:27:26;;;;;;;16.23;11.93;;;14.60;99.90;;;;;;5032744;28;20026;-60
2022/10/31 08:30:12;;;;;;;15.45;10.73;;;14.50;99.90;;;;;;5032827;28;20030;-61
2022/10/31 08:33:00;;;;;;;13.77;11.48;;;14.60;99.90;;;;;;5017754;28;20116;-61
2022/10/31 08:35:47;;;;;;;14.05;11.65;;;14.70;99.90;;;;;;5032287;28;20032;-60
2022/10/31 08:38:33;;;;;;;16.45;12.60;;;14.80;99.90;;;;;;5017628;28;20034;-64
2022/10/31 08:41:19;;;;;;;14.20;12.00;;;14.90;99.90;;;;;;4998728;28;20037;-60
2022/10/31 08:44:05;;;;;;;16.20;11.00;;;14.90;99.90;;;;;;5016925;28;20032;-61
2022/10/31 08:46:50;;;;;;;16.50;11.40;;;15.00;99.90;;;;;;5013154;28;20057;-64
2022/10/31 08:49:36;;;;;;;16.85;11.57;;;15.10;99.90;;;;;;5008592;28;20033;-64
2022/10/31 08:52:24;;;;;;;24.88;15.00;;;15.20;99.90;;;;;;5011927;28;20097;-62
2022/10/31 08:55:10;;;;;;;22.05;15.35;;;15.20;99.90;;;;;;4998427;28;20034;-64
2022/10/31 08:57:57;;;;;;;22.08;15.27;;;15.20;99.90;;;;;;5014802;28;20474;-61
2022/10/31 09:00:44;;;;;;;20.70;14.40;;;15.30;99.90;;;;;;5032734;28;20486;-61
2022/10/31 09:03:31;;;;;;;17.77;14.23;;;15.30;99.90;;;;;;5018253;28;20404;-62
2022/10/31 09:06:17;;;;;;;22.60;14.32;;;15.30;99.90;;;;;;5018570;28;20034;-62
2022/10/31 09:09:03;;;;;;;21.80;14.35;;;15.50;99.90;;;;;;5016398;28;20033;-60
2022/10/31 09:11:49;;;;;;;21.60;15.05;;;15.60;99.90;;;;;;5017377;28;20057;-61
2022/10/31 09:14:35;;;;;;;24.50;16.15;;;15.70;99.90;;;;;;5016857;28;20025;-62
2022/10/31 09:17:21;;;;;;;24.05;17.60;;;15.80;99.90;;;;;;5029960;28;20100;-62
2022/10/31 09:20:07;;;;;;;25.65;16.95;;;15.80;99.90;;;;;;5017617;28;20379;-62
2022/10/31 09:23:06;;;;;;;30.65;18.55;;;16.00;99.90;;;;;;4997651;28;20037;-62
2022/10/31 09:25:54;;;;;;;26.13;19.25;;;16.00;99.90;;;;;;5016329;28;20029;-63
2022/10/31 09:28:40;;;;;;;33.92;20.90;;;16.10;99.90;;;;;;5028935;28;20045;-60
2022/10/31 09:31:26;;;;;;;29.63;21.42;;;16.10;99.90;;;;;;5016389;28;20502;-60
2022/10/31 09:34:14;;;;;;;30.95;19.98;;;16.10;99.90;;;;;;5032181;28;20653;-62
2022/10/31 09:37:00;;;;;;;25.17;19.60;;;16.30;99.90;;;;;;5030733;28;20060;-61
2022/10/31 09:39:49;;;;;;;34.67;21.98;;;16.40;99.90;;;;;;5031185;28;20518;-62
2022/10/31 09:42:54;;;;;;;44.35;29.92;;;16.60;99.90;;;;;;5016759;28;20083;-63
2022/10/31 09:45:47;;;;;;;;;;;16.70;99.90;;;;;;5020886;28;20029;-61
2022/10/31 09:49:14;;;;;;;47.30;28.83;;;16.70;99.90;;;;;;5030971;28;19932;-63
2022/10/31 09:52:09;;;;;;;50.13;28.58;;;16.70;99.90;;;;;;5030578;28;20112;-64
2022/10/31 09:55:00;;;;;;;;;;;16.60;99.90;;;;;;5031195;28;20490;-63
2022/10/31 09:57:47;;;;;;;42.08;26.85;;;16.60;99.90;;;;;;5029619;28;19912;-61
2022/10/31 10:00:34;;;;;;;40.97;29.10;;;16.80;99.90;;;;;;5015933;28;20061;-61
2022/10/31 10:03:39;;;;;;;46.58;29.20;;;16.90;99.90;;;;;;5030897;28;20030;-60
2022/10/31 10:06:29;;;;;;;44.20;30.63;;;16.90;99.90;;;;;;5030715;28;20034;-63
2022/10/31 10:09:15;;;;;;;42.42;29.02;;;17.00;99.90;;;;;;5029832;28;20068;-61
2022/10/31 10:12:27;;;;;;;51.15;30.63;;;17.10;99.90;;;;;;5027675;28;20398;-62
2022/10/31 10:15:28;;;;;;;48.35;31.73;;;16.90;99.90;;;;;;5026686;28;20596;-62
2022/10/31 10:18:43;;;;;;;48.70;31.42;;;17.00;99.90;;;;;;5030429;28;20028;-63
2022/10/31 10:21:58;;;;;;;57.05;33.05;;;17.00;99.90;;;;;;5007582;28;20021;-64
2022/10/31 10:25:02;;;;;;;60.47;32.95;;;16.90;99.90;;;;;;5025321;28;20049;-63
2022/10/31 10:27:59;;;;;;;57.05;32.72;;;16.90;99.90;;;;;;5011398;28;20026;-61
2022/10/31 10:31:13;;;;;;;50.42;32.97;;;17.00;99.90;;;;;;5030097;28;20075;-61
2022/10/31 10:34:11;;;;;;;53.05;33.45;;;17.10;99.90;;;;;;5029475;28;20035;-62
2022/10/31 10:37:16;;;;;;;54.95;31.85;;;17.20;99.90;;;;;;5030023;28;20064;-59
2022/10/31 10:40:13;;;;;;;50.67;30.33;;;17.10;99.90;;;;;;5015422;28;20033;-60
2022/10/31 10:43:22;;;;;;;42.60;29.17;;;17.30;99.90;;;;;;5017402;28;20029;-63
2022/10/31 10:49:26;;;;;;;50.15;32.58;;;17.50;99.90;;;;;;5030090;28;20033;-63
2022/10/31 10:52:22;;;;;;;45.90;29.05;;;17.60;99.90;;;;;;5029922;28;20109;-63
2022/10/31 10:55:37;;;;;;;41.63;29.02;;;17.80;99.90;;;;;;5030275;28;20022;-61
2022/10/31 10:58:23;;;;;;;48.50;32.42;;;17.90;99.90;;;;;;5009745;28;20030;-60
2022/10/31 11:01:14;;;;;;;44.20;29.75;;;18.00;99.90;;;;;;5013064;28;20516;-61
2022/10/31 11:04:02;;;;;;;51.53;29.75;;;18.20;99.90;;;;;;5028898;28;20029;-62
2022/10/31 11:06:59;;;;;;;39.42;29.10;;;18.30;99.90;;;;;;5029614;28;20029;-62
2022/10/31 11:09:46;;;;;;;47.78;30.20;;;18.30;99.90;;;;;;5030932;28;20033;-63
2022/10/31 11:12:33;;;;;;;45.58;31.70;;;18.50;99.90;;;;;;5030268;28;20048;-61
2022/10/31 11:15:23;;;;;;;47.17;30.05;;;18.40;99.90;;;;;;5015636;28;20037;-60
2022/10/31 11:18:22;;;;;;;46.60;32.15;;;18.40;99.90;;;;;;5029625;28;20025;-61
2022/10/31 11:21:29;;;;;;;42.60;30.45;;;18.40;99.90;;;;;;5028594;28;20120;-61
2022/10/31 11:24:18;;;;;;;40.92;28.40;;;18.50;99.90;;;;;;5027754;28;20214;-61
2022/10/31 11:27:30;;;;;;;43.97;28.85;;;18.60;99.90;;;;;;5027710;28;20033;-62
2022/10/31 11:30:16;;;;;;;46.85;30.60;;;18.60;99.90;;;;;;5022704;28;20029;-62
2022/10/31 11:33:03;;;;;;;44.65;30.05;;;18.60;99.90;;;;;;5029400;28;20494;-61
2022/10/31 11:35:50;;;;;;;42.33;29.70;;;18.60;99.90;;;;;;5015492;28;20407;-61
2022/10/31 11:38:41;;;;;;;41.38;27.13;;;18.80;99.90;;;;;;5029705;28;20573;-61
2022/10/31 11:41:46;;;;;;;40.63;27.60;;;18.90;99.90;;;;;;5029949;28;20037;-61
2022/10/31 11:44:33;;;;;;;42.95;28.30;;;19.00;99.90;;;;;;5029116;28;20083;-61
2022/10/31 11:47:28;;;;;;;42.95;30.90;;;19.00;99.90;;;;;;5016354;28;20410;-62
2022/10/31 11:50:24;;;;;;;39.53;26.23;;;19.00;99.90;;;;;;5016932;28;20398;-61
2022/10/31 11:53:50;;;;;;;39.92;29.13;;;19.10;99.90;;;;;;5014462;28;20109;-62
2022/10/31 11:56:42;;;;;;;44.05;30.33;;;19.10;99.90;;;;;;4998744;28;20030;-63
2022/10/31 11:59:31;;;;;;;48.03;31.33;;;19.00;99.90;;;;;;5032556;28;20490;-61
2022/10/31 12:02:19;;;;;;;50.13;37.67;;;18.90;99.90;;;;;;5017883;28;20132;-61
2022/10/31 12:05:28;;;;;;;49.13;30.70;;;18.80;99.90;;;;;;5033412;28;20037;-66
2022/10/31 12:08:15;;;;;;;49.33;30.85;;;18.80;99.90;;;;;;5014741;28;20033;-64
2022/10/31 12:11:36;;;;;;;45.05;30.85;;;18.90;99.90;;;;;;5017060;28;20119;-61
2022/10/31 12:14:40;;;;;;;41.03;28.75;;;19.00;99.90;;;;;;5031532;28;20029;-61
2022/10/31 12:17:38;;;;;;;47.65;31.10;;;19.00;99.90;;;;;;5030941;28;20025;-62
2022/10/31 12:20:59;;;;;;;41.33;28.30;;;19.10;99.90;;;;;;5031455;28;20025;-64
2022/10/31 12:23:57;;;;;;;50.03;33.53;;;19.20;99.90;;;;;;5032686;28;20032;-61
2022/10/31 12:26:55;;;;;;;39.05;28.70;;;19.30;99.90;;;;;;5018332;28;20478;-59
2022/10/31 12:30:10;;;;;;;44.90;31.10;;;19.30;99.90;;;;;;5031720;28;20059;-63
2022/10/31 12:33:25;;;;;;;50.75;32.70;;;19.40;99.90;;;;;;5013038;28;20508;-64
2022/10/31 12:36:32;;;;;;;41.20;30.92;;;19.30;99.90;;;;;;5031755;28;20034;-61
2022/10/31 12:39:51;;;;;;;51.50;33.70;;;19.20;99.90;;;;;;5018260;28;20017;-61
2022/10/31 12:43:28;;;;;;;49.67;33.85;;;19.20;99.90;;;;;;5013379;28;20445;-63
2022/10/31 12:46:54;;;;;;;48.78;33.15;;;19.00;99.90;;;;;;4996504;28;20097;-60
2022/10/31 12:49:58;;;;;;;50.00;31.52;;;19.00;99.90;;;;;;5023261;28;20036;-60
2022/10/31 12:53:02;;;;;;;56.95;38.08;;;19.10;99.90;;;;;;5017642;28;20694;-62
2022/10/31 12:55:55;;;;;;;46.47;32.30;;;19.10;99.90;;;;;;5031253;28;20159;-60
2022/10/31 12:58:53;;;;;;;67.10;44.00;;;19.10;99.90;;;;;;5031710;28;20401;-61
2022/10/31 13:02:01;;;;;;;48.55;34.00;;;19.20;99.90;;;;;;5012397;28;20077;-63
2022/10/31 13:04:47;;;;;;;46.58;33.42;;;19.10;99.90;;;;;;5020002;28;20386;-62
2022/10/31 13:07:43;;;;;;;53.75;36.42;;;19.10;99.90;;;;;;5031678;28;20524;-61
2022/10/31 13:10:40;;;;;;;59.60;41.33;;;19.10;99.90;;;;;;5031236;28;20501;-61
2022/10/31 13:14:01;;;;;;;58.80;37.80;;;19.00;99.90;;;;;;5031646;28;20021;-62
2022/10/31 13:16:48;;;;;;;49.17;34.05;;;19.00;99.90;;;;;;4952518;28;20027;-61
2022/10/31 13:19:44;;;;;;;49.70;35.58;;;18.90;99.90;;;;;;5030666;28;20044;-61
2022/10/31 13:22:35;;;;;;;49.70;33.72;;;18.90;99.90;;;;;;5030851;28;20025;-61
2022/10/31 13:25:33;;;;;;;42.03;29.70;;;18.90;99.90;;;;;;5030629;28;20536;-61
2022/10/31 13:28:44;;;;;;;52.50;33.78;;;18.80;99.90;;;;;;5017586;28;20022;-60
2022/10/31 13:31:30;;;;;;;49.97;33.85;;;18.80;99.90;;;;;;5030343;28;20108;-60
2022/10/31 13:34:39;;;;;;;53.00;35.47;;;18.70;99.90;;;;;;5016627;28;20033;-62
2022/10/31 13:37:48;;;;;;;57.10;36.08;;;18.60;99.90;;;;;;5015695;28;20087;-59
2022/10/31 13:41:19;;;;;;;51.22;33.67;;;18.50;99.90;;;;;;5011845;28;20029;-61
2022/10/31 13:44:08;;;;;;;55.50;33.83;;;18.40;99.90;;;;;;5009572;28;20030;-60
2022/10/31 13:46:56;;;;;;;48.28;32.17;;;18.40;99.90;;;;;;5029734;28;20013;-59
2022/10/31 13:49:42;;;;;;;49.45;31.60;;;18.40;99.90;;;;;;5013750;28;20551;-60
2022/10/31 13:52:29;;;;;;;60.70;34.28;;;18.40;99.90;;;;;;4999055;28;20452;-59
2022/10/31 13:55:38;;;;;;;47.35;30.02;;;18.40;99.90;;;;;;5030773;28;20033;-59
2022/10/31 13:58:31;;;;;;;50.85;34.88;;;18.30;99.90;;;;;;5029643;28;20491;-61
2022/10/31 14:01:21;;;;;;;53.13;34.00;;;18.30;99.90;;;;;;5030751;28;20486;-58
2022/10/31 14:04:16;;;;;;;52.83;33.65;;;18.30;99.90;;;;;;5030766;28;20037;-60
2022/10/31 14:07:12;;;;;;;52.67;34.10;;;18.30;99.90;;;;;;5030093;28;20045;-63
2022/10/31 14:10:29;;;;;;;48.97;33.28;;;18.20;99.90;;;;;;5023715;28;20119;-60
2022/10/31 14:13:23;;;;;;;56.10;34.65;;;18.20;99.90;;;;;;5025736;28;20520;-60
2022/10/31 14:16:53;;;;;;;44.80;31.47;;;18.10;99.90;;;;;;5030777;28;20025;-62
2022/10/31 14:19:39;;;;;;;48.55;32.75;;;18.10;99.90;;;;;;5029855;28;20314;-60
2022/10/31 14:22:30;;;;;;;48.40;32.53;;;18.10;99.90;;;;;;5030142;28;20069;-60
2022/10/31 14:25:28;;;;;;;53.97;33.53;;;18.10;99.90;;;;;;5012559;28;20433;-59
2022/10/31 14:28:33;;;;;;;57.33;37.05;;;18.00;99.90;;;;;;5025544;28;20032;-59
2022/10/31 14:31:35;;;;;;;55.85;34.65;;;18.00;99.90;;;;;;5033047;28;20037;-60
2022/10/31 14:34:34;;;;;;;49.25;33.90;;;17.90;99.90;;;;;;5044947;28;20103;-59
2022/10/31 14:37:37;;;;;;;55.70;34.25;;;17.90;99.90;;;;;;5044238;28;20706;-59
2022/10/31 14:40:31;;;;;;;55.50;35.28;;;17.90;99.90;;;;;;5013785;28;20018;-62